Time;durP1;ratioP1;P1;durP2;ratioP2;P2;SDS_P1;SDS_P2;PMS_P1;PMS_P2;Temp;Humidity;BMP_temperature;BMP_pressure;BME280_temperature;BME280_humidity;BME280_pressure;Samples;Min_cycle;Max_cycle;Signal;HPM_P1;HPM_P2
2022/02/17 00:01:57;;;;;;;101.50;47.30;;;;;;;1.53;100.00;98631.14;1676004;84;21031;-71
2022/02/17 00:04:27;;;;;;;94.72;44.05;;;;;;;1.51;100.00;98625.70;1704186;84;21066;-72
2022/02/17 00:06:56;;;;;;;106.70;48.38;;;;;;;1.50;100.00;98625.45;1704521;84;20979;-72
2022/02/17 00:09:26;;;;;;;103.10;46.60;;;;;;;1.51;100.00;98629.78;1704289;84;21444;-74
2022/02/17 00:11:54;;;;;;;100.20;49.70;;;;;;;1.51;100.00;98631.14;1675872;84;21065;-74
2022/02/17 00:14:22;;;;;;;117.72;49.58;;;;;;;1.49;100.00;98621.92;1703979;84;20966;-73
2022/02/17 00:16:52;;;;;;;98.75;48.95;;;;;;;1.44;100.00;98624.13;1675842;84;21027;-72
2022/02/17 00:19:20;;;;;;;96.60;48.13;;;;;;;1.47;100.00;98611.88;1704258;82;21472;-73
2022/02/17 00:21:49;;;;;;;96.45;46.23;;;;;;;1.49;100.00;98605.63;1704541;84;21059;-72
2022/02/17 00:24:20;;;;;;;88.35;43.80;;;;;;;1.50;100.00;98607.23;1704394;84;21789;-73
2022/02/17 00:26:49;;;;;;;84.90;42.90;;;;;;;1.52;100.00;98598.27;1680629;84;21543;-72
2022/02/17 00:29:18;;;;;;;84.22;43.80;;;;;;;1.53;100.00;98596.38;1703662;84;20983;-72
2022/02/17 00:31:46;;;;;;;82.00;43.28;;;;;;;1.51;100.00;98590.41;1704231;84;20975;-74
2022/02/17 00:34:18;;;;;;;86.63;43.80;;;;;;;1.50;100.00;98598.30;1701456;83;21043;-74
2022/02/17 00:36:46;;;;;;;92.72;47.55;;;;;;;1.50;100.00;98579.30;1670954;84;21124;-74
2022/02/17 00:39:16;;;;;;;81.82;42.55;;;;;;;1.51;100.00;98576.29;1694680;84;21418;-74
2022/02/17 00:41:44;;;;;;;84.80;43.60;;;;;;;1.51;100.00;98569.50;1694758;84;20999;-74
2022/02/17 00:44:14;;;;;;;88.95;46.08;;;;;;;1.48;100.00;98552.96;1694688;84;21040;-73
2022/02/17 00:46:42;;;;;;;91.00;46.85;;;;;;;1.47;100.00;98551.35;1694924;84;21540;-73
2022/02/17 00:49:11;;;;;;;98.85;47.03;;;;;;;1.43;100.00;98541.03;1694891;84;20944;-74
2022/02/17 00:51:41;;;;;;;91.78;47.78;;;;;;;1.41;100.00;98545.95;1695095;84;20908;-74
2022/02/17 00:54:13;;;;;;;98.03;49.35;;;;;;;1.39;100.00;98546.78;1694907;84;21602;-74
2022/02/17 00:56:44;;;;;;;96.85;49.63;;;;;;;1.39;100.00;98547.31;1670586;84;21008;-74
2022/02/17 00:59:15;;;;;;;97.12;47.80;;;;;;;1.39;100.00;98542.70;1694908;84;21035;-73
2022/02/17 01:01:47;;;;;;;91.47;47.17;;;;;;;1.42;100.00;98531.81;1695030;84;21160;-73
2022/02/17 01:04:15;;;;;;;90.72;47.58;;;;;;;1.44;100.00;98518.77;1694979;84;20956;-74
2022/02/17 01:06:46;;;;;;;88.20;44.83;;;;;;;1.44;100.00;98511.98;1670997;84;21544;-71
2022/02/17 01:09:20;;;;;;;90.72;44.27;;;;;;;1.45;100.00;98508.20;1670747;84;21055;-70
2022/02/17 01:11:50;;;;;;;86.30;45.65;;;;;;;1.45;100.00;98493.27;1695194;84;21496;-72
2022/02/17 01:14:18;;;;;;;83.72;44.13;;;;;;;1.46;100.00;98489.44;1670406;84;21107;-73
2022/02/17 01:16:45;;;;;;;75.78;40.60;;;;;;;1.47;100.00;98487.55;1671018;84;21193;-73
2022/02/17 01:19:16;;;;;;;85.92;44.65;;;;;;;1.44;100.00;98484.30;1694827;83;21031;-72
2022/02/17 01:21:45;;;;;;;75.97;42.48;;;;;;;1.47;100.00;98487.55;1694284;84;21004;-73
2022/02/17 01:24:16;;;;;;;82.10;43.45;;;;;;;1.47;100.00;98473.40;1694465;84;21016;-72
2022/02/17 01:26:44;;;;;;;81.65;43.35;;;;;;;1.49;100.00;98478.00;1694720;84;21170;-74
2022/02/17 01:29:19;;;;;;;77.65;41.37;;;;;;;1.50;100.00;98466.61;1670808;84;21024;-73
2022/02/17 01:31:47;;;;;;;79.30;43.10;;;;;;;1.51;100.00;98460.06;1670722;84;21633;-74
2022/02/17 01:34:15;;;;;;;90.72;45.03;;;;;;;1.52;100.00;98442.12;1696535;84;21015;-72
2022/02/17 01:36:48;;;;;;;88.10;44.98;;;;;;;1.54;100.00;98439.13;1692984;84;21519;-71
2022/02/17 01:39:15;;;;;;;81.87;44.23;;;;;;;1.53;100.00;98434.80;1704350;84;20939;-72
2022/02/17 01:41:42;;;;;;;85.30;45.70;;;;;;;1.50;100.00;98434.02;1704044;84;21641;-71
2022/02/17 01:44:11;;;;;;;82.70;43.68;;;;;;;1.49;100.00;98426.95;1703536;84;21503;-72
2022/02/17 01:46:42;;;;;;;81.82;43.17;;;;;;;1.48;100.00;98430.78;1704393;84;21503;-71
2022/02/17 01:49:10;;;;;;;79.82;42.85;;;;;;;1.47;100.00;98433.23;1676470;84;21491;-73
2022/02/17 01:51:41;;;;;;;84.42;43.92;;;;;;;1.46;100.00;98425.63;1675723;84;21048;-71
2022/02/17 01:54:09;;;;;;;85.03;44.60;;;;;;;1.43;100.00;98425.64;1731957;82;21114;-71
2022/02/17 01:56:38;;;;;;;89.42;45.73;;;;;;;1.41;100.00;98414.82;1733821;82;20999;-73
2022/02/17 01:59:13;;;;;;;84.87;44.60;;;;;;;1.39;100.00;98411.04;1733807;82;21006;-71
2022/02/17 02:01:43;;;;;;;86.63;45.40;;;;;;;1.39;100.00;98404.79;1733286;82;21468;-72
2022/02/17 02:04:14;;;;;;;80.70;45.00;;;;;;;1.41;100.00;98392.56;1733630;82;21397;-71
2022/02/17 02:06:45;;;;;;;84.95;45.25;;;;;;;1.44;100.00;98374.88;1704276;82;21027;-73
2022/02/17 02:09:16;;;;;;;90.97;47.67;;;;;;;1.47;100.00;98381.08;1704701;82;21054;-71
2022/02/17 02:11:59;;;;;;;86.53;45.70;;;;;;;1.49;100.00;98377.54;1680032;82;20949;-72
2022/02/17 02:14:27;;;;;;;82.00;44.48;;;;;;;1.51;100.00;98364.49;1733612;82;20968;-73
2022/02/17 02:16:56;;;;;;;78.57;42.88;;;;;;;1.54;100.00;98359.84;1705301;82;21778;-68
2022/02/17 02:19:23;;;;;;;78.45;43.92;;;;;;;1.55;100.00;98353.30;1704425;82;21409;-72
2022/02/17 02:21:57;;;;;;;79.40;45.03;;;;;;;1.54;100.00;98348.98;1704290;82;21484;-73
2022/02/17 02:24:27;;;;;;;89.60;46.42;;;;;;;1.55;100.00;98345.72;1733856;82;20940;-71
2022/02/17 02:26:56;;;;;;;79.10;43.90;;;;;;;1.55;100.00;98350.58;1704713;82;21472;-74
2022/02/17 02:29:24;;;;;;;81.72;44.95;;;;;;;1.54;100.00;98343.55;1733823;82;21441;-72
2022/02/17 02:31:53;;;;;;;83.07;45.12;;;;;;;1.58;100.00;98339.70;1704454;82;20888;-73
2022/02/17 02:34:19;;;;;;;81.65;45.67;;;;;;;1.62;100.00;98330.44;1732377;82;21051;-68
2022/02/17 02:36:48;;;;;;;86.67;44.42;;;;;;;1.65;100.00;98326.59;1698802;83;21062;-73
2022/02/17 02:39:15;;;;;;;86.60;45.35;;;;;;;1.66;100.00;98325.48;1698954;83;20892;-70
2022/02/17 02:41:52;;;;;;;81.67;45.95;;;;;;;1.66;100.00;98330.92;1723366;83;21016;-73
2022/02/17 02:44:19;;;;;;;86.97;46.95;;;;;;;1.70;100.00;98330.61;1723876;83;20945;-73
2022/02/17 02:46:51;;;;;;;91.53;48.20;;;;;;;1.75;100.00;98328.38;1723106;83;21092;-73
2022/02/17 02:49:19;;;;;;;90.75;45.15;;;;;;;1.81;100.00;98318.23;1723679;83;21039;-74
2022/02/17 02:51:49;;;;;;;88.27;46.83;;;;;;;1.86;100.00;98307.88;1723843;83;21137;-74
2022/02/17 02:54:18;;;;;;;87.53;48.52;;;;;;;1.87;100.00;98299.43;1723657;83;21129;-72
2022/02/17 02:56:47;;;;;;;81.53;44.77;;;;;;;1.89;100.00;98290.45;1723655;83;21491;-74
2022/02/17 02:59:16;;;;;;;86.75;45.83;;;;;;;1.93;100.00;98287.38;1723716;83;21008;-72
2022/02/17 03:01:43;;;;;;;92.80;47.55;;;;;;;1.96;100.00;98290.08;1723793;83;21023;-73
2022/02/17 03:04:13;;;;;;;86.28;45.30;;;;;;;1.99;100.00;98292.20;1723742;83;21005;-73
2022/02/17 03:06:42;;;;;;;84.70;45.10;;;;;;;2.00;100.00;98278.05;1699913;83;21157;-73
2022/02/17 03:09:10;;;;;;;85.90;48.13;;;;;;;2.03;100.00;98277.48;1699001;83;21000;-73
2022/02/17 03:11:37;;;;;;;99.95;48.65;;;;;;;2.05;100.00;98271.19;1698820;83;21004;-73
2022/02/17 03:14:05;;;;;;;91.20;49.67;;;;;;;2.09;100.00;98264.61;1699036;83;20972;-73
2022/02/17 03:16:36;;;;;;;95.77;47.78;;;;;;;2.11;100.00;98257.80;1723883;83;20948;-74
2022/02/17 03:19:07;;;;;;;99.60;48.20;;;;;;;2.14;100.00;98264.54;1723644;83;20980;-74
2022/02/17 03:21:37;;;;;;;96.63;48.48;;;;;;;2.15;100.00;98279.19;1723379;83;20949;-73
2022/02/17 03:24:05;;;;;;;88.62;47.27;;;;;;;2.17;100.00;98272.10;1698744;83;21094;-73
2022/02/17 03:26:34;;;;;;;92.60;48.78;;;;;;;2.19;100.00;98256.31;1698773;83;20968;-72
2022/02/17 03:29:03;;;;;;;92.10;48.25;;;;;;;2.19;100.00;98258.48;1723589;83;20984;-74
2022/02/17 03:31:40;;;;;;;90.75;47.78;;;;;;;2.20;100.00;98259.30;1723464;83;21156;-73
2022/02/17 03:34:12;;;;;;;91.10;49.50;;;;;;;2.19;100.00;98250.33;1723450;83;20932;-72
2022/02/17 03:36:42;;;;;;;87.62;46.83;;;;;;;2.22;100.00;98239.41;1698460;83;21030;-71
2022/02/17 03:41:47;;;;;;;96.53;48.33;;;;;;;2.26;100.00;98245.88;1696492;83;21079;-73
2022/02/17 03:44:15;;;;;;;97.05;46.30;;;;;;;2.27;100.00;98243.98;1698161;83;21148;-73
2022/02/17 03:46:43;;;;;;;96.75;50.08;;;;;;;2.28;100.00;98234.70;1723535;83;20980;-74
2022/02/17 03:49:12;;;;;;;98.15;52.53;;;;;;;2.30;100.00;98241.45;1723066;83;21540;-73
2022/02/17 03:51:41;;;;;;;102.17;51.80;;;;;;;2.32;100.00;98245.23;1723476;83;21497;-71
2022/02/17 03:54:09;;;;;;;96.30;49.53;;;;;;;2.33;100.00;98240.06;1698138;83;21027;-73
2022/02/17 03:56:39;;;;;;;105.45;53.13;;;;;;;2.33;100.00;98225.11;1722466;83;21275;-73
2022/02/17 03:59:17;;;;;;;100.38;51.05;;;;;;;2.33;100.00;98227.83;1679618;83;20979;-72
2022/02/17 04:01:43;;;;;;;103.62;53.92;;;;;;;2.33;100.00;98227.02;1698636;83;21044;-70
2022/02/17 04:04:12;;;;;;;97.40;52.13;;;;;;;2.33;100.00;98215.59;1698277;83;21032;-73
2022/02/17 04:06:39;;;;;;;101.55;50.85;;;;;;;2.33;100.00;98206.08;1699044;83;21084;-70
2022/02/17 04:09:09;;;;;;;103.70;52.85;;;;;;;2.33;100.00;98203.36;1723335;83;21346;-73
2022/02/17 04:11:38;;;;;;;105.67;54.27;;;;;;;2.32;100.00;98196.30;1723197;83;20956;-72
2022/02/17 04:14:11;;;;;;;97.12;50.38;;;;;;;2.33;100.00;98190.31;1723213;83;20929;-73
2022/02/17 04:16:42;;;;;;;98.70;50.90;;;;;;;2.31;100.00;98187.35;1722091;83;21028;-74
2022/02/17 04:19:12;;;;;;;103.07;50.12;;;;;;;2.33;100.00;98188.41;1718160;83;20989;-74
2022/02/17 04:21:58;;;;;;;105.47;54.45;;;;;;;2.34;100.00;98194.66;1698365;83;21398;-72
2022/02/17 04:24:27;;;;;;;99.13;52.73;;;;;;;2.34;100.00;98192.73;1721456;83;21038;-74
2022/02/17 04:26:57;;;;;;;102.90;50.88;;;;;;;2.34;100.00;98179.14;1723157;82;20968;-72
2022/02/17 04:29:29;;;;;;;100.45;51.48;;;;;;;2.33;100.00;98164.48;1722323;83;21091;-74
2022/02/17 04:31:55;;;;;;;107.80;52.20;;;;;;;2.32;100.00;98166.39;1723706;83;20940;-73
2022/02/17 04:34:24;;;;;;;102.80;53.33;;;;;;;2.31;100.00;98164.24;1723186;83;21157;-71
2022/02/17 04:36:50;;;;;;;103.20;51.83;;;;;;;2.33;100.00;98158.50;1723834;82;21027;-73
2022/02/17 04:39:17;;;;;;;100.10;51.23;;;;;;;2.37;100.00;98151.92;1698928;83;21461;-73
2022/02/17 04:44:33;;;;;;;102.97;55.50;;;;;;;2.39;100.00;98136.13;1723816;83;20949;-74
2022/02/17 04:47:01;;;;;;;99.47;51.45;;;;;;;2.38;100.00;98133.95;1724010;83;21113;-74
2022/02/17 04:49:30;;;;;;;100.35;53.45;;;;;;;2.40;100.00;98126.30;1723902;83;20968;-73
2022/02/17 04:52:00;;;;;;;99.62;51.40;;;;;;;2.41;100.00;98126.55;1724079;83;21000;-73
2022/02/17 04:54:32;;;;;;;98.42;51.35;;;;;;;2.42;100.00;98119.20;1723910;83;21161;-73
2022/02/17 04:57:06;;;;;;;98.30;51.53;;;;;;;2.43;100.00;98122.98;1723703;83;21012;-73
2022/02/17 04:59:37;;;;;;;97.60;49.75;;;;;;;2.43;100.00;98119.45;1723774;83;21552;-74
2022/02/17 05:02:07;;;;;;;99.05;49.85;;;;;;;2.43;100.00;98112.11;1723815;83;21032;-73
2022/02/17 05:04:36;;;;;;;98.45;51.10;;;;;;;2.42;100.00;98109.11;1723812;83;20928;-73
2022/02/17 05:07:10;;;;;;;106.67;52.78;;;;;;;2.41;100.00;98103.44;1724259;83;20997;-73
2022/02/17 05:09:42;;;;;;;108.85;54.98;;;;;;;2.41;100.00;98104.80;1723950;83;21098;-71
2022/02/17 05:12:10;;;;;;;98.42;51.37;;;;;;;2.43;100.00;98109.38;1723604;83;21918;-71
2022/02/17 05:14:40;;;;;;;103.00;53.87;;;;;;;2.45;100.00;98105.55;1723441;83;21047;-74
2022/02/17 05:17:11;;;;;;;97.82;50.05;;;;;;;2.46;100.00;98101.73;1676248;83;21087;-72
2022/02/17 05:19:41;;;;;;;101.97;53.38;;;;;;;2.46;100.00;98099.80;1699023;83;21008;-72
2022/02/17 05:22:23;;;;;;;100.82;53.00;;;;;;;2.45;100.00;98081.89;1723791;83;21049;-73
2022/02/17 05:25:11;;;;;;;99.00;53.68;;;;;;;2.46;100.00;98079.41;1722551;83;21397;-73
2022/02/17 05:27:59;;;;;;;102.90;52.83;;;;;;;2.47;100.00;98064.73;1698891;83;21023;-72
2022/02/17 05:30:40;;;;;;;97.75;51.08;;;;;;;2.45;100.00;98057.96;1719458;83;21032;-74
2022/02/17 05:33:24;;;;;;;100.12;51.25;;;;;;;2.46;100.00;98061.73;1703636;83;21020;-74
2022/02/17 05:35:55;;;;;;;99.50;51.08;;;;;;;2.45;100.00;98054.70;1723627;82;20961;-73
2022/02/17 05:38:45;;;;;;;103.92;53.28;;;;;;;2.45;100.00;98049.27;1698889;83;21004;-74
2022/02/17 05:41:20;;;;;;;103.00;50.17;;;;;;;2.46;100.00;98041.92;1723743;83;20972;-73
2022/02/17 05:43:49;;;;;;;104.12;51.73;;;;;;;2.46;100.00;98035.13;1723824;83;21071;-73
2022/02/17 05:46:20;;;;;;;94.42;51.13;;;;;;;2.45;100.00;98031.59;1698878;83;20965;-74
2022/02/17 05:48:49;;;;;;;100.00;51.42;;;;;;;2.46;100.00;98035.13;1723832;83;20980;-73
2022/02/17 05:51:20;;;;;;;104.80;51.77;;;;;;;2.45;100.00;98029.41;1675851;83;21055;-71
2022/02/17 05:53:48;;;;;;;105.12;52.15;;;;;;;2.50;100.00;98034.75;1723802;83;21076;-74
2022/02/17 05:56:16;;;;;;;100.40;52.45;;;;;;;2.52;100.00;98027.92;1699137;83;20940;-75
2022/02/17 05:58:43;;;;;;;98.35;50.17;;;;;;;2.55;100.00;98025.13;1723820;83;21031;-73
2022/02/17 06:01:12;;;;;;;100.62;51.85;;;;;;;2.59;100.00;98024.79;1724110;83;21024;-73
2022/02/17 06:03:40;;;;;;;97.12;50.63;;;;;;;2.61;100.00;98020.41;1723955;83;21297;-74
2022/02/17 06:06:06;;;;;;;94.87;48.87;;;;;;;2.61;100.00;98013.61;1724112;83;21414;-73
2022/02/17 06:08:35;;;;;;;103.47;50.75;;;;;;;2.62;100.00;98017.92;1723899;83;20992;-74
2022/02/17 06:11:04;;;;;;;111.83;53.02;;;;;;;2.62;100.00;98013.84;1724032;83;20901;-73
2022/02/17 06:13:33;;;;;;;109.63;51.10;;;;;;;2.64;100.00;98022.52;1699021;83;21418;-72
2022/02/17 06:16:04;;;;;;;98.25;50.65;;;;;;;2.65;100.00;98022.20;1700405;83;21064;-72
2022/02/17 06:18:32;;;;;;;104.90;51.73;;;;;;;2.66;100.00;98012.92;1698474;83;20996;-73
2022/02/17 06:21:02;;;;;;;99.03;49.98;;;;;;;2.66;100.00;98011.56;1723708;83;21048;-73
2022/02/17 06:23:30;;;;;;;104.10;49.80;;;;;;;2.66;100.00;98006.13;1723735;83;21023;-73
2022/02/17 06:25:59;;;;;;;106.00;51.25;;;;;;;2.66;100.00;97996.61;1723998;83;20983;-74
2022/02/17 06:28:27;;;;;;;94.32;49.00;;;;;;;2.66;100.00;97991.16;1698635;83;21056;-75
2022/02/17 06:30:55;;;;;;;107.67;52.88;;;;;;;2.67;100.00;97989.26;1699132;83;20932;-73
2022/02/17 06:33:23;;;;;;;99.47;50.63;;;;;;;2.70;100.00;97990.55;1723915;83;21044;-74
2022/02/17 06:35:54;;;;;;;107.35;52.20;;;;;;;2.73;100.00;97988.60;1723575;82;21524;-73
2022/02/17 06:38:22;;;;;;;105.78;51.23;;;;;;;2.75;100.00;97983.64;1723797;83;21540;-74
2022/02/17 06:40:52;;;;;;;103.62;50.23;;;;;;;2.73;100.00;97968.98;1723768;82;21149;-73
2022/02/17 06:43:20;;;;;;;106.60;52.35;;;;;;;2.73;100.00;97969.56;1698709;83;20988;-74
2022/02/17 06:45:56;;;;;;;99.28;49.23;;;;;;;2.74;100.00;97959.73;1723720;83;21075;-72
2022/02/17 06:48:26;;;;;;;109.57;49.95;;;;;;;2.77;100.00;97969.18;1723785;83;20957;-73
2022/02/17 06:51:04;;;;;;;94.00;50.28;;;;;;;2.80;100.00;97968.02;1723680;83;36301;-73
2022/02/17 06:53:44;;;;;;;102.32;50.50;;;;;;;2.84;100.00;97949.17;1723987;83;20980;-73
2022/02/17 06:56:19;;;;;;;76.80;38.40;;;;;;;2.88;100.00;97951.51;1723739;83;21438;-74
2022/02/17 06:58:50;;;;;;;98.55;50.50;;;;;;;2.90;100.00;97953.38;1722271;83;21065;-74
2022/02/17 07:01:18;;;;;;;98.65;48.52;;;;;;;2.97;100.00;97948.87;1698806;83;21054;-74
2022/02/17 07:03:48;;;;;;;100.58;48.52;;;;;;;3.01;100.00;97944.42;1723788;83;21464;-75
2022/02/17 07:06:16;;;;;;;100.87;52.50;;;;;;;3.06;100.00;97935.87;1723891;83;21137;-74
2022/02/17 07:08:46;;;;;;;96.87;48.40;;;;;;;3.11;100.00;97931.67;1723786;83;21044;-73
2022/02/17 07:11:13;;;;;;;89.60;47.30;;;;;;;3.18;100.00;97929.88;1698819;83;21000;-73
2022/02/17 07:13:42;;;;;;;99.10;48.17;;;;;;;3.23;100.00;97927.03;1723858;83;20944;-74
2022/02/17 07:16:09;;;;;;;95.38;48.02;;;;;;;3.26;100.00;97910.89;1724077;83;21079;-74
2022/02/17 07:18:37;;;;;;;86.78;46.48;;;;;;;3.29;100.00;97899.95;1723874;83;21269;-74
2022/02/17 07:21:09;;;;;;;80.87;43.65;;;;;;;3.30;100.00;97887.93;1698702;83;21437;-75
2022/02/17 07:23:36;;;;;;;96.92;48.13;;;;;;;3.34;100.00;97876.67;1723737;83;21477;-76
2022/02/17 07:26:12;;;;;;;88.50;44.95;;;;;;;3.35;100.00;97865.20;1723829;83;20900;-73
2022/02/17 07:28:44;;;;;;;90.75;44.42;;;;;;;3.31;99.92;97854.13;1723908;83;20900;-75
2022/02/17 07:31:13;;;;;;;87.88;46.08;;;;;;;3.31;100.00;97848.69;1723663;83;21835;-73
2022/02/17 07:33:39;;;;;;;86.30;47.05;;;;;;;3.34;100.00;97844.00;1723637;83;20960;-69
2022/02/17 07:36:09;;;;;;;92.85;46.37;;;;;;;3.37;99.95;97845.28;1723752;82;21017;-74
2022/02/17 07:38:39;;;;;;;85.77;45.85;;;;;;;3.40;99.72;97828.31;1723848;83;20961;-74
2022/02/17 07:41:12;;;;;;;89.00;47.83;;;;;;;3.46;99.60;97820.81;1699071;83;21004;-74
2022/02/17 07:43:42;;;;;;;86.80;46.48;;;;;;;3.50;99.45;97810.34;1723944;83;21974;-75
2022/02/17 07:46:12;;;;;;;81.85;45.03;;;;;;;3.55;99.06;97811.33;1699437;83;20975;-74
2022/02/17 07:48:40;;;;;;;86.72;44.42;;;;;;;3.57;98.66;97803.06;1698806;83;21015;-72
2022/02/17 07:51:12;;;;;;;83.35;45.10;;;;;;;3.62;98.68;97798.03;1723804;83;20893;-76
2022/02/17 07:53:43;;;;;;;85.22;44.20;;;;;;;3.68;98.64;97792.70;1723687;83;21361;-75
2022/02/17 07:56:13;;;;;;;79.67;42.70;;;;;;;3.75;98.43;97789.51;1723716;83;21223;-67
2022/02/17 07:58:40;;;;;;;90.80;46.60;;;;;;;3.83;98.37;97796.89;1723915;83;20936;-74
2022/02/17 08:01:08;;;;;;;79.07;43.70;;;;;;;3.91;98.08;97813.59;1723715;83;20973;-74
2022/02/17 08:03:36;;;;;;;83.85;42.95;;;;;;;3.94;96.86;97808.86;1723719;83;20909;-73
2022/02/17 08:06:04;;;;;;;83.52;42.43;;;;;;;3.97;96.84;97821.30;1723739;83;20957;-74
2022/02/17 08:08:34;;;;;;;91.95;44.53;;;;;;;4.06;96.75;97815.84;1699433;83;21969;-73
2022/02/17 08:11:05;;;;;;;79.17;42.80;;;;;;;4.16;96.44;97831.66;1723840;83;21000;-73
2022/02/17 08:13:35;;;;;;;82.53;43.15;;;;;;;4.22;95.97;97831.74;1723419;83;20924;-73
2022/02/17 08:16:15;;;;;;;75.35;41.83;;;;;;;4.29;95.61;97829.35;1723727;83;20976;-73
2022/02/17 08:18:46;;;;;;;78.60;43.58;;;;;;;4.35;95.37;97810.34;1720333;83;20936;-74
2022/02/17 08:21:13;;;;;;;84.37;44.10;;;;;;;4.45;94.97;97813.88;1698743;83;21121;-74
2022/02/17 08:23:43;;;;;;;85.40;43.63;;;;;;;4.47;94.56;97799.37;1698590;83;21472;-73
2022/02/17 08:26:14;;;;;;;78.90;41.48;;;;;;;4.45;93.81;97783.87;1723636;83;21055;-73
2022/02/17 08:28:43;;;;;;;74.72;41.45;;;;;;;4.45;93.46;97766.15;1723764;83;20984;-74
2022/02/17 08:31:13;;;;;;;73.83;41.18;;;;;;;4.48;93.32;97747.77;1723674;82;20984;-74
2022/02/17 08:33:43;;;;;;;79.62;42.23;;;;;;;4.58;93.44;97738.44;1699884;83;20996;-74
2022/02/17 08:36:11;;;;;;;77.72;41.58;;;;;;;4.72;93.38;97730.08;1723894;82;21117;-73
2022/02/17 08:38:40;;;;;;;73.15;41.60;;;;;;;4.83;92.67;97724.50;1723651;83;21022;-72
2022/02/17 08:41:11;;;;;;;76.65;42.98;;;;;;;4.93;92.25;97720.61;1698803;83;20920;-72
2022/02/17 08:43:41;;;;;;;77.05;41.95;;;;;;;5.03;91.54;97712.65;1723929;83;21485;-73
2022/02/17 08:46:21;;;;;;;84.22;43.98;;;;;;;5.11;91.32;97715.91;1723620;83;21209;-73
2022/02/17 08:48:49;;;;;;;71.55;39.63;;;;;;;5.24;90.66;97711.89;1723682;83;21572;-74
2022/02/17 08:51:22;;;;;;;78.40;44.48;;;;;;;5.36;90.67;97724.85;1722128;83;20956;-68
2022/02/17 08:53:56;;;;;;;75.70;41.48;;;;;;;5.49;89.91;97723.03;1723554;83;21008;-72
2022/02/17 08:56:28;;;;;;;72.80;40.12;;;;;;;5.60;89.33;97728.91;1723652;83;20993;-73
2022/02/17 09:01:33;;;;;;;73.55;41.13;;;;;;;5.65;87.51;97727.91;1723792;83;21016;-72
2022/02/17 09:03:59;;;;;;;84.80;41.90;;;;;;;5.62;86.83;97712.17;1723614;83;20948;-69
2022/02/17 09:06:30;;;;;;;69.47;40.28;;;;;;;5.60;86.82;97702.95;1698964;83;20984;-72
2022/02/17 09:08:59;;;;;;;71.57;39.65;;;;;;;5.57;86.50;97694.86;1723700;83;20924;-74
2022/02/17 09:11:29;;;;;;;68.87;38.85;;;;;;;5.54;86.17;97679.69;1723907;83;21275;-74
2022/02/17 09:13:56;;;;;;;69.55;38.83;;;;;;;5.50;85.87;97675.45;1723625;83;20885;-74
2022/02/17 09:16:22;;;;;;;68.75;38.28;;;;;;;5.45;85.76;97665.52;1723704;83;20976;-74
2022/02/17 09:18:49;;;;;;;69.35;35.48;;;;;;;5.44;85.74;97652.98;1723772;83;21011;-72
2022/02/17 09:21:25;;;;;;;68.95;37.00;;;;;;;5.46;85.81;97644.45;1723425;83;21004;-72
2022/02/17 09:23:54;;;;;;;67.92;38.02;;;;;;;5.49;85.72;97638.34;1699905;83;20940;-72
2022/02/17 09:26:24;;;;;;;62.43;36.17;;;;;;;5.52;85.43;97640.97;1723963;83;21476;-72
2022/02/17 09:28:53;;;;;;;69.30;37.90;;;;;;;5.52;85.00;97624.02;1723671;83;21060;-73
2022/02/17 09:31:23;;;;;;;67.62;35.95;;;;;;;5.51;84.67;97625.72;1723356;83;21016;-74
2022/02/17 09:33:53;;;;;;;64.95;34.55;;;;;;;5.50;84.62;97613.17;1661993;84;21109;-74
2022/02/17 09:36:21;;;;;;;62.88;35.08;;;;;;;5.50;84.38;97607.15;1681700;82;21136;-72
2022/02/17 09:38:50;;;;;;;56.18;33.85;;;;;;;5.52;84.41;97603.52;1686879;84;21059;-70
2022/02/17 09:41:21;;;;;;;67.67;34.73;;;;;;;5.54;84.37;97601.83;1686298;84;21527;-74
2022/02/17 09:43:52;;;;;;;;;;;;;;;5.55;84.33;97589.19;1689371;84;21015;-74
2022/02/17 09:46:21;;;;;;;65.37;34.58;;;;;;;5.59;84.37;97581.13;1673071;84;20170;-72
2022/02/17 09:49:01;;;;;;;68.02;35.80;;;;;;;5.62;84.36;97585.11;1663491;84;21813;-72
2022/02/17 09:51:33;;;;;;;60.48;35.92;;;;;;;5.65;84.34;97568.85;1686183;84;21055;-74
2022/02/17 09:54:04;;;;;;;62.73;33.60;;;;;;;5.70;84.39;97565.92;1687071;84;21070;-71
2022/02/17 09:56:32;;;;;;;58.42;34.18;;;;;;;5.78;84.23;97554.69;1689394;84;21034;-74
2022/02/17 09:59:16;;;;;;;;;;;;;;;;;;;;;
2022/02/17 10:01:31;;;;;;;56.33;32.53;;;;;;;5.89;83.92;97540.02;1655687;84;21050;-71
2022/02/17 10:04:18;;;;;;;59.18;33.95;;;;;;;5.96;83.79;97525.23;1660753;84;21004;-73
2022/02/17 10:07:03;;;;;;;71.47;36.53;;;;;;;6.03;83.59;97511.02;1690006;84;21713;-73
2022/02/17 10:09:46;;;;;;;63.28;34.35;;;;;;;6.06;83.30;97514.45;1695544;84;21526;-74
2022/02/17 10:12:17;;;;;;;56.68;32.67;;;;;;;6.09;83.19;97515.70;1691156;84;21055;-71
2022/02/17 10:14:45;;;;;;;55.05;31.40;;;;;;;6.12;82.98;97508.77;1660169;84;21204;-70
2022/02/17 10:17:15;;;;;;;48.65;29.60;;;;;;;6.14;82.85;97503.17;1663728;84;21019;-74
2022/02/17 10:19:50;;;;;;;53.68;32.67;;;;;;;6.18;82.76;97499.20;1688867;82;21015;-73
2022/02/17 10:22:25;;;;;;;54.15;30.82;;;;;;;6.21;82.61;97497.95;1688564;84;21069;-71
2022/02/17 10:24:54;;;;;;;50.67;28.75;;;;;;;6.24;82.28;97495.13;1687404;84;21042;-74
2022/02/17 10:27:27;;;;;;;49.05;28.45;;;;;;;6.29;82.08;97489.43;1690688;84;21162;-72
2022/02/17 10:30:09;;;;;;;42.10;26.15;;;;;;;6.35;81.89;97481.78;1664510;84;21075;-72
2022/02/17 10:33:07;;;;;;;39.58;25.08;;;;;;;6.47;81.70;97468.67;1700655;84;21056;-73
2022/02/17 10:35:33;;;;;;;43.20;25.10;;;;;;;6.64;80.96;97464.09;1690637;84;21027;-75
2022/02/17 10:38:07;;;;;;;48.05;27.50;;;;;;;6.77;80.13;97455.30;1689546;84;21067;-74
2022/02/17 10:40:36;;;;;;;48.35;27.62;;;;;;;6.81;79.61;97448.78;1664265;84;21091;-73
2022/02/17 10:43:12;;;;;;;42.98;26.65;;;;;;;6.84;79.00;97443.17;1686705;84;21713;-74
2022/02/17 10:45:48;;;;;;;38.75;25.17;;;;;;;6.81;78.69;97443.31;1685473;84;21027;-74
2022/02/17 10:48:25;;;;;;;43.10;26.40;;;;;;;6.78;78.14;97433.63;1693909;83;21018;-73
2022/02/17 10:51:14;;;;;;;44.85;27.30;;;;;;;6.74;77.92;97432.14;1698555;84;21129;-73
2022/02/17 10:53:58;;;;;;;35.75;23.85;;;;;;;6.70;78.02;97425.78;1713162;83;21273;-72
2022/02/17 10:56:31;;;;;;;41.55;25.23;;;;;;;6.69;77.67;97424.97;1673399;85;20985;-73
2022/02/17 10:59:06;;;;;;;46.25;25.30;;;;;;;6.66;77.36;97420.75;1694080;84;21147;-74
2022/02/17 11:01:37;;;;;;;44.45;24.50;;;;;;;6.64;77.44;97421.66;1687019;84;21011;-72
2022/02/17 11:04:09;;;;;;;42.75;23.05;;;;;;;6.61;77.61;97415.52;1686172;84;21066;-74
2022/02/17 11:06:45;;;;;;;47.10;23.57;;;;;;;6.57;77.71;97409.37;1688311;84;21507;-74
2022/02/17 11:09:14;;;;;;;38.65;23.92;;;;;;;6.55;77.48;97410.28;1686263;84;21536;-72
2022/02/17 11:11:44;;;;;;;40.75;22.55;;;;;;;6.54;77.51;97403.79;1687550;84;21026;-73
2022/02/17 11:14:14;;;;;;;36.70;21.02;;;;;;;6.51;77.33;97400.38;1685606;84;21035;-75
2022/02/17 11:16:49;;;;;;;37.20;20.02;;;;;;;6.46;77.42;97394.58;1688680;84;21067;-72
2022/02/17 11:19:20;;;;;;;33.78;20.20;;;;;;;6.42;77.53;97392.30;1685110;84;21146;-72
2022/02/17 11:21:49;;;;;;;30.35;19.20;;;;;;;6.38;77.92;97383.97;1659738;84;21015;-73
2022/02/17 11:24:17;;;;;;;35.17;21.75;;;;;;;6.36;78.34;97367.69;1664266;85;21026;-72
2022/02/17 11:26:47;;;;;;;33.13;20.20;;;;;;;6.36;78.73;97362.22;1689084;84;21693;-72
2022/02/17 11:29:30;;;;;;;33.53;19.30;;;;;;;6.32;78.84;97350.61;1618951;82;21084;-70
2022/02/17 11:32:03;;;;;;;35.85;19.82;;;;;;;6.30;78.95;97336.47;1692803;82;21192;-73
2022/02/17 11:34:44;;;;;;;33.65;18.00;;;;;;;6.29;79.24;97339.55;1686103;84;21565;-72
2022/02/17 11:37:32;;;;;;;31.75;18.27;;;;;;;6.28;79.22;97334.64;1682734;83;21058;-72
2022/02/17 11:40:09;;;;;;;31.57;18.75;;;;;;;6.29;79.22;97328.05;1704629;83;22190;-72
2022/02/17 11:42:38;;;;;;;31.02;18.70;;;;;;;6.30;79.04;97331.00;1702875;83;21015;-73
2022/02/17 11:45:26;;;;;;;36.00;20.05;;;;;;;6.32;79.05;97328.72;1645162;86;21076;-70